Plato, Indiana
Current Conditions -  °F | °C
As of 1:14 AM on Saturday 29 Nov 2014 (Local Time) from KIRS Reporting Station
Scattered Clouds Scattered Clouds  
Wind Chill: 23°   Ceiling: Unl
Heat Index: 30°   Visibility: 10mi
Dew Point: 23°   Wind: 7mph
Humidity: 75%   Direction: 150°SSE
Pressure: 29.96"   Gusts: NA
Location:  41.6561°N, 85.3683°W
Report Text: KIRS 290614Z AUTO 15006KT 10SM SCT110 M01/M05 A2996 RMK AO2
Loading
Personal Weather Stations






























Interactive Weather Map New forecast layout! Learn more

10-Day Weather Forecast

Advertisements
Track Severe Weather on mobile